Time;durP1;ratioP1;P1;durP2;ratioP2;P2;SDS_P1;SDS_P2;PMS_P1;PMS_P2;Temp;Humidity;BMP_temperature;BMP_pressure;BME280_temperature;BME280_humidity;BME280_pressure;Samples;Min_cycle;Max_cycle;Signal;HPM_P1;HPM_P2
2023/12/28 00:00:52;;;;;;;4.35;2.13;;;9.70;95.40;;;;;;9175966;19;20014;-68
2023/12/28 00:04:00;;;;;;;6.68;1.98;;;9.80;95.40;;;;;;9168488;19;20015;-70
2023/12/28 00:07:06;;;;;;;5.03;2.00;;;9.70;95.40;;;;;;9175433;19;20041;-69
2023/12/28 00:10:19;;;;;;;3.13;1.60;;;9.30;95.20;;;;;;9178064;19;20029;-70
2023/12/28 00:13:25;;;;;;;5.72;2.13;;;9.70;95.70;;;;;;9175585;19;20483;-70
2023/12/28 00:16:37;;;;;;;6.13;1.90;;;9.80;95.40;;;;;;9176599;19;20014;-71
2023/12/28 00:19:49;;;;;;;2.88;1.48;;;9.70;95.30;;;;;;9179580;19;20022;-69
2023/12/28 00:22:58;;;;;;;2.78;1.77;;;9.80;95.30;;;;;;9179409;19;20637;-67
2023/12/28 00:26:06;;;;;;;6.20;2.22;;;9.80;95.40;;;;;;9180079;19;20021;-67
2023/12/28 00:29:14;;;;;;;3.60;1.77;;;9.90;95.30;;;;;;9179491;19;20019;-68
2023/12/28 00:32:19;;;;;;;6.10;1.88;;;9.90;95.30;;;;;;9178371;19;20025;-70
2023/12/28 00:35:27;;;;;;;2.72;1.80;;;10.00;95.30;;;;;;9178057;19;20017;-68
2023/12/28 00:38:32;;;;;;;2.85;1.75;;;10.00;95.40;;;;;;9175713;19;20073;-68
2023/12/28 00:41:42;;;;;;;4.60;2.20;;;10.00;95.30;;;;;;9172104;19;20010;-71
2023/12/28 00:44:48;;;;;;;4.63;1.67;;;10.10;95.20;;;;;;9177339;19;20026;-68
2023/12/28 00:47:56;;;;;;;4.38;2.28;;;10.00;95.00;;;;;;9177595;19;20014;-72
2023/12/28 00:51:04;;;;;;;2.28;1.60;;;10.00;95.40;;;;;;9175489;19;20018;-71
2023/12/28 00:54:12;;;;;;;6.45;2.28;;;10.10;95.20;;;;;;9176253;19;20025;-71
2023/12/28 00:57:20;;;;;;;4.68;1.85;;;10.10;95.30;;;;;;9177086;19;20072;-72
2023/12/28 01:00:28;;;;;;;5.60;3.13;;;10.20;95.20;;;;;;9175721;19;20479;-72
2023/12/28 01:03:34;;;;;;;6.22;2.30;;;10.10;95.10;;;;;;9171703;19;20766;-72
2023/12/28 01:06:42;;;;;;;2.22;1.42;;;10.10;95.20;;;;;;9176728;19;20014;-72
2023/12/28 01:09:47;;;;;;;2.25;1.50;;;10.20;95.50;;;;;;9177264;19;20052;-71
2023/12/28 01:12:58;;;;;;;4.93;2.15;;;10.30;95.50;;;;;;9177577;19;20006;-71
2023/12/28 01:16:04;;;;;;;4.55;1.77;;;10.20;95.50;;;;;;9176792;19;20014;-71
2023/12/28 01:19:11;;;;;;;9.02;2.00;;;10.40;95.40;;;;;;9176536;19;20037;-71
2023/12/28 01:22:17;;;;;;;4.50;2.40;;;10.40;95.60;;;;;;9175874;19;20015;-71
2023/12/28 01:25:25;;;;;;;5.35;1.95;;;10.30;95.90;;;;;;9175726;19;20022;-71
2023/12/28 01:28:33;;;;;;;7.18;2.75;;;10.40;95.60;;;;;;9174201;19;20014;-72
2023/12/28 01:31:41;;;;;;;6.28;2.03;;;10.40;95.50;;;;;;9175183;19;20018;-72
2023/12/28 01:34:48;;;;;;;7.47;2.25;;;10.40;95.60;;;;;;9177573;19;20093;-72
2023/12/28 01:37:55;;;;;;;5.20;1.95;;;10.50;95.80;;;;;;9175960;19;20401;-72
2023/12/28 01:41:01;;;;;;;6.28;2.33;;;10.50;95.60;;;;;;9175447;19;20015;-72
2023/12/28 01:44:13;;;;;;;5.18;2.45;;;10.60;95.70;;;;;;9174773;19;20665;-72
2023/12/28 01:47:19;;;;;;;2.00;1.77;;;10.60;95.60;;;;;;9175956;19;20011;-72
2023/12/28 01:50:27;;;;;;;6.53;2.63;;;10.60;95.50;;;;;;9176907;19;20014;-73
2023/12/28 01:53:33;;;;;;;4.20;2.03;;;10.60;95.40;;;;;;9175267;19;20017;-72
2023/12/28 01:56:42;;;;;;;3.88;2.05;;;10.60;95.30;;;;;;9172669;19;20349;-68
2023/12/28 01:59:50;;;;;;;8.93;2.38;;;10.50;95.30;;;;;;9173440;19;20015;-69
2023/12/28 02:02:58;;;;;;;5.78;2.20;;;10.50;95.30;;;;;;9169288;19;20042;-69
2023/12/28 02:06:05;;;;;;;4.20;1.95;;;10.60;95.50;;;;;;9172590;19;20511;-70
2023/12/28 02:09:12;;;;;;;2.80;1.92;;;10.60;95.30;;;;;;9172440;19;20018;-68
2023/12/28 02:12:21;;;;;;;2.78;2.10;;;10.60;95.40;;;;;;9175303;19;20022;-68
2023/12/28 02:15:31;;;;;;;3.92;2.20;;;10.60;95.60;;;;;;9175753;19;20025;-69
2023/12/28 02:18:45;;;;;;;3.05;1.88;;;10.60;95.40;;;;;;9172688;19;20021;-69
2023/12/28 02:21:54;;;;;;;3.30;1.90;;;10.60;95.70;;;;;;9173922;19;20025;-69
2023/12/28 02:25:09;;;;;;;5.82;1.75;;;10.60;95.30;;;;;;9174694;19;20484;-69
2023/12/28 02:28:17;;;;;;;3.10;1.75;;;10.60;95.40;;;;;;9172268;19;20052;-69
2023/12/28 02:31:30;;;;;;;3.40;2.00;;;11.20;95.70;;;;;;9175179;19;21649;-68
2023/12/28 02:34:43;;;;;;;4.75;1.52;;;10.60;95.50;;;;;;9174619;19;20010;-69
2023/12/28 02:37:54;;;;;;;8.45;2.03;;;10.70;95.60;;;;;;9183086;19;20059;-68
2023/12/28 02:41:06;;;;;;;4.60;2.22;;;10.60;95.70;;;;;;9181735;19;20014;-69
2023/12/28 02:44:12;;;;;;;4.50;2.10;;;10.60;95.40;;;;;;9183657;19;20019;-68
2023/12/28 02:47:19;;;;;;;4.22;2.08;;;10.60;95.60;;;;;;9183987;19;20018;-69
2023/12/28 02:50:25;;;;;;;6.47;2.22;;;10.70;95.70;;;;;;9183497;19;20078;-68
2023/12/28 02:53:32;;;;;;;5.18;2.03;;;10.70;95.90;;;;;;9179505;19;20014;-68
2023/12/28 02:56:42;;;;;;;6.30;2.30;;;10.70;96.10;;;;;;9182877;19;20078;-68
2023/12/28 02:59:50;;;;;;;4.32;2.45;;;10.70;95.80;;;;;;9180876;19;20022;-69
2023/12/28 03:02:56;;;;;;;6.82;2.22;;;10.70;96.10;;;;;;9176657;19;20358;-69
2023/12/28 03:06:04;;;;;;;4.47;1.70;;;10.80;95.80;;;;;;9181296;19;20011;-70
2023/12/28 03:09:09;;;;;;;3.15;2.55;;;10.70;95.90;;;;;;9180146;19;20011;-72
2023/12/28 03:12:19;;;;;;;5.38;2.40;;;10.80;95.70;;;;;;9181384;19;20010;-72
2023/12/28 03:15:26;;;;;;;6.35;2.42;;;10.70;95.60;;;;;;9179585;19;20026;-72
2023/12/28 03:18:35;;;;;;;3.50;1.95;;;11.00;95.90;;;;;;9179613;19;20021;-72
2023/12/28 03:21:42;;;;;;;4.10;2.17;;;10.70;96.10;;;;;;9179827;19;20054;-72
2023/12/28 03:24:50;;;;;;;5.93;2.00;;;10.80;95.60;;;;;;9181590;19;20026;-72
2023/12/28 03:27:58;;;;;;;3.63;1.88;;;10.80;96.00;;;;;;9183250;19;20805;-72
2023/12/28 03:31:06;;;;;;;7.68;2.60;;;10.80;96.00;;;;;;9181675;19;20021;-72
2023/12/28 03:34:12;;;;;;;5.53;2.28;;;10.80;96.10;;;;;;9182058;19;20056;-72
2023/12/28 03:37:21;;;;;;;5.60;2.50;;;10.70;95.70;;;;;;9179878;19;20025;-73
2023/12/28 03:40:28;;;;;;;10.77;2.88;;;10.80;95.60;;;;;;9179025;19;20007;-72
2023/12/28 03:43:38;;;;;;;3.58;2.25;;;10.80;95.70;;;;;;9179228;19;20030;-72
2023/12/28 03:46:43;;;;;;;7.82;2.80;;;10.70;95.80;;;;;;9176797;19;20029;-71
2023/12/28 03:49:51;;;;;;;5.28;2.35;;;10.70;95.90;;;;;;9177176;19;20018;-71
2023/12/28 03:52:58;;;;;;;4.50;2.45;;;10.80;96.30;;;;;;9182162;19;20014;-72
2023/12/28 03:56:06;;;;;;;6.47;2.42;;;10.80;96.50;;;;;;9180579;19;20500;-72
2023/12/28 03:59:15;;;;;;;2.90;1.90;;;10.70;96.60;;;;;;9179007;19;20478;-71
2023/12/28 04:02:24;;;;;;;4.35;2.05;;;10.70;96.10;;;;;;9175764;19;20050;-72
2023/12/28 04:05:30;;;;;;;6.43;2.28;;;10.80;96.60;;;;;;9177483;19;20034;-72
2023/12/28 04:08:37;;;;;;;7.95;2.17;;;10.70;97.30;;;;;;9180053;19;20026;-71
2023/12/28 04:11:43;;;;;;;5.82;2.05;;;10.80;97.00;;;;;;9178186;19;20488;-72
2023/12/28 04:14:54;;;;;;;6.45;2.22;;;10.80;97.00;;;;;;9178430;19;20014;-71
2023/12/28 04:18:00;;;;;;;5.80;2.22;;;10.80;96.70;;;;;;9180022;19;20007;-72
2023/12/28 04:21:12;;;;;;;3.38;2.35;;;10.80;97.20;;;;;;9176850;19;20032;-72
2023/12/28 04:24:19;;;;;;;4.85;2.25;;;10.80;96.90;;;;;;9177208;19;20360;-72
2023/12/28 04:27:26;;;;;;;3.63;2.05;;;10.80;97.20;;;;;;9177776;19;20111;-72
2023/12/28 04:30:35;;;;;;;5.60;2.00;;;10.80;97.20;;;;;;9178685;19;20077;-72
2023/12/28 04:33:43;;;;;;;7.53;2.42;;;10.70;97.30;;;;;;9177012;19;20022;-71
2023/12/28 04:36:49;;;;;;;10.30;2.25;;;10.80;97.30;;;;;;9177524;19;20376;-71
2023/12/28 04:39:56;;;;;;;4.43;2.17;;;10.80;97.70;;;;;;9178198;19;20015;-72
2023/12/28 04:43:02;;;;;;;5.45;2.25;;;10.90;97.90;;;;;;9175401;19;20014;-72
2023/12/28 04:46:12;;;;;;;6.40;2.22;;;10.80;98.40;;;;;;9175631;19;20017;-71
2023/12/28 04:49:18;;;;;;;6.65;2.30;;;10.90;98.70;;;;;;9176608;19;20349;-73
2023/12/28 04:52:26;;;;;;;8.50;2.72;;;10.90;99.10;;;;;;9176244;19;20018;-72
2023/12/28 04:55:36;;;;;;;7.20;2.30;;;10.80;98.10;;;;;;9178191;19;20018;-73
2023/12/28 04:58:44;;;;;;;6.70;2.22;;;10.80;99.10;;;;;;9177126;19;20021;-73
2023/12/28 05:01:52;;;;;;;6.82;2.20;;;10.90;97.90;;;;;;9176138;19;20023;-72
2023/12/28 05:05:00;;;;;;;5.10;2.03;;;10.90;97.70;;;;;;9172443;19;20523;-72
2023/12/28 05:08:07;;;;;;;7.85;2.17;;;10.80;97.40;;;;;;9175289;19;20491;-72
2023/12/28 05:11:15;;;;;;;5.13;2.30;;;10.90;97.60;;;;;;9175362;19;20046;-73
2023/12/28 05:14:21;;;;;;;8.13;2.22;;;10.90;98.80;;;;;;9176999;19;20024;-72
2023/12/28 05:17:32;;;;;;;10.95;3.28;;;10.90;99.60;;;;;;9175634;19;20037;-72
2023/12/28 05:20:37;;;;;;;5.78;2.20;;;10.90;98.00;;;;;;9176966;19;20025;-72
2023/12/28 05:23:45;;;;;;;9.25;2.63;;;10.80;97.70;;;;;;9173853;19;20550;-72
2023/12/28 05:26:50;;;;;;;9.00;2.30;;;11.00;97.00;;;;;;9177138;19;20602;-74
2023/12/28 05:29:58;;;;;;;8.68;2.00;;;10.90;97.20;;;;;;9176377;19;20006;-74
2023/12/28 05:33:07;;;;;;;5.40;2.13;;;10.90;97.20;;;;;;9176016;19;20357;-74
2023/12/28 05:36:15;;;;;;;8.38;2.15;;;10.80;96.70;;;;;;9176519;19;20019;-75
2023/12/28 05:39:20;;;;;;;8.20;2.88;;;10.90;96.70;;;;;;9174311;19;20014;-74
2023/12/28 05:42:28;;;;;;;8.35;3.22;;;10.90;96.60;;;;;;9173870;19;20014;-73
2023/12/28 05:45:33;;;;;;;8.23;2.28;;;10.80;97.10;;;;;;9174447;19;20026;-75
2023/12/28 05:48:43;;;;;;;7.35;2.30;;;10.90;97.40;;;;;;9174893;19;20018;-73
2023/12/28 05:51:49;;;;;;;4.70;2.00;;;10.90;97.50;;;;;;9177225;19;20010;-74
2023/12/28 05:54:57;;;;;;;7.38;1.80;;;10.80;96.70;;;;;;9175695;19;20018;-73
2023/12/28 05:58:03;;;;;;;10.32;2.40;;;10.90;97.40;;;;;;9175897;19;20499;-74
2023/12/28 06:01:11;;;;;;;6.97;2.78;;;10.80;97.20;;;;;;9173921;19;20019;-73
2023/12/28 06:04:22;;;;;;;9.70;2.55;;;10.90;96.90;;;;;;9169588;19;20015;-74
2023/12/28 06:07:29;;;;;;;17.33;3.25;;;10.90;97.10;;;;;;9173794;19;20014;-73
2023/12/28 06:10:35;;;;;;;7.43;2.08;;;10.90;97.00;;;;;;9178475;19;20018;-73
2023/12/28 06:13:43;;;;;;;10.02;2.45;;;10.90;97.70;;;;;;9183560;19;20014;-74
2023/12/28 06:16:48;;;;;;;8.20;2.08;;;11.00;97.70;;;;;;9184522;19;20011;-74
2023/12/28 06:19:58;;;;;;;9.82;2.13;;;11.00;97.70;;;;;;9184061;19;20041;-74
2023/12/28 06:23:05;;;;;;;6.95;1.85;;;10.90;97.70;;;;;;9181139;19;20019;-74
2023/12/28 06:26:12;;;;;;;10.88;2.38;;;10.80;97.90;;;;;;9181889;19;20018;-74
2023/12/28 06:29:19;;;;;;;7.15;2.30;;;11.00;97.60;;;;;;9181118;19;20026;-75
2023/12/28 06:32:26;;;;;;;7.53;1.95;;;11.00;97.90;;;;;;9182979;19;20119;-74
2023/12/28 06:35:39;;;;;;;8.73;2.22;;;10.90;96.80;;;;;;9183597;19;20634;-74
2023/12/28 06:38:46;;;;;;;5.95;1.70;;;11.00;97.90;;;;;;9180388;19;20011;-74
2023/12/28 06:41:52;;;;;;;15.50;2.10;;;11.10;98.20;;;;;;9183964;19;20003;-76
2023/12/28 06:44:59;;;;;;;7.32;1.35;;;11.10;98.10;;;;;;9179327;19;20019;-74
2023/12/28 06:48:06;;;;;;;11.70;2.25;;;11.10;98.20;;;;;;9183251;19;20044;-73
2023/12/28 06:51:19;;;;;;;5.10;1.70;;;11.10;98.10;;;;;;9184119;19;20026;-74
2023/12/28 06:54:25;;;;;;;9.88;2.20;;;11.10;98.90;;;;;;9183016;19;20014;-74
2023/12/28 06:57:32;;;;;;;17.05;2.20;;;11.20;97.20;;;;;;9182573;19;20010;-75
2023/12/28 07:00:38;;;;;;;11.57;2.17;;;11.10;96.30;;;;;;9182048;19;20015;-74
2023/12/28 07:03:45;;;;;;;7.80;2.15;;;11.10;96.10;;;;;;9178552;19;20022;-74
2023/12/28 07:06:54;;;;;;;13.13;1.75;;;11.20;96.10;;;;;;9180377;19;20015;-73
2023/12/28 07:10:01;;;;;;;13.70;2.10;;;11.20;95.80;;;;;;9181548;19;20099;-73
2023/12/28 07:13:07;;;;;;;18.17;2.47;;;11.30;96.50;;;;;;9181041;19;20028;-73
2023/12/28 07:16:16;;;;;;;8.48;2.03;;;11.00;96.50;;;;;;9182841;19;20018;-74
2023/12/28 07:19:21;;;;;;;17.92;2.90;;;11.30;96.20;;;;;;9181188;19;20018;-73
2023/12/28 07:22:32;;;;;;;7.88;3.05;;;11.30;96.80;;;;;;9181716;19;20472;-76
2023/12/28 07:25:37;;;;;;;16.02;2.13;;;11.30;96.20;;;;;;9179581;19;20011;-74
2023/12/28 07:28:47;;;;;;;12.73;2.38;;;11.30;96.50;;;;;;9180661;19;20027;-74
2023/12/28 07:31:53;;;;;;;19.55;2.25;;;11.40;96.50;;;;;;9181882;19;20010;-75
2023/12/28 07:35:01;;;;;;;14.35;2.10;;;11.40;96.90;;;;;;9178091;19;20010;-74
2023/12/28 07:38:09;;;;;;;13.30;2.05;;;11.40;97.60;;;;;;9180514;19;20086;-73
2023/12/28 07:41:17;;;;;;;10.70;2.25;;;11.40;97.00;;;;;;9181237;19;20033;-74
2023/12/28 07:44:22;;;;;;;22.00;2.88;;;11.50;96.80;;;;;;9180911;19;20014;-73
2023/12/28 07:47:30;;;;;;;17.88;2.78;;;11.40;96.80;;;;;;9179322;19;20029;-75
2023/12/28 07:50:39;;;;;;;16.15;2.55;;;11.50;97.10;;;;;;9167528;19;20003;-73
2023/12/28 07:53:49;;;;;;;12.30;2.63;;;11.40;96.90;;;;;;9179850;19;20010;-74
2023/12/28 07:56:55;;;;;;;19.40;2.35;;;11.50;96.60;;;;;;9179615;19;20504;-74
2023/12/28 08:00:03;;;;;;;20.35;3.17;;;11.60;96.60;;;;;;9177530;19;20349;-74
2023/12/28 08:03:09;;;;;;;14.77;2.30;;;11.70;96.80;;;;;;9180301;19;20021;-74
2023/12/28 08:06:16;;;;;;;22.27;2.53;;;11.50;96.60;;;;;;9176254;19;20010;-74
2023/12/28 08:09:25;;;;;;;14.75;3.22;;;11.60;96.70;;;;;;9179458;19;20016;-73
2023/12/28 08:12:35;;;;;;;14.35;2.53;;;11.60;97.40;;;;;;9180369;19;20641;-74
2023/12/28 08:15:42;;;;;;;20.45;2.70;;;;;;;;;;9179836;19;20025;-75
2023/12/28 08:18:50;;;;;;;17.45;2.58;;;11.60;97.70;;;;;;9179161;19;20015;-74
2023/12/28 08:21:58;;;;;;;15.55;2.13;;;;;;;;;;9178688;19;20023;-74
2023/12/28 08:25:09;;;;;;;14.35;2.33;;;12.10;97.40;;;;;;9177455;19;20018;-73
2023/12/28 08:28:16;;;;;;;18.30;2.60;;;11.70;99.50;;;;;;9176744;19;20084;-73
2023/12/28 08:31:24;;;;;;;18.85;2.83;;;11.80;99.00;;;;;;9179612;19;20027;-74
2023/12/28 08:34:30;;;;;;;26.08;3.25;;;11.70;96.60;;;;;;9177099;19;20594;-73
2023/12/28 08:37:38;;;;;;;21.92;3.40;;;11.80;95.90;;;;;;9177555;19;20010;-68
2023/12/28 08:40:46;;;;;;;25.00;2.95;;;11.70;95.70;;;;;;9177264;19;20011;-65
2023/12/28 08:43:54;;;;;;;17.08;2.85;;;11.70;95.40;;;;;;9179485;19;20018;-66
2023/12/28 08:47:00;;;;;;;16.33;2.63;;;11.70;95.40;;;;;;9175826;19;20015;-65
2023/12/28 08:50:08;;;;;;;14.45;2.80;;;11.90;95.70;;;;;;9173467;19;20010;-67
2023/12/28 08:53:14;;;;;;;13.43;2.38;;;11.80;95.60;;;;;;9178466;19;20010;-66
2023/12/28 08:56:25;;;;;;;16.45;2.90;;;11.80;95.70;;;;;;9174159;19;20491;-67
2023/12/28 08:59:30;;;;;;;24.25;3.28;;;11.90;95.70;;;;;;9175067;19;20578;-66
2023/12/28 09:02:38;;;;;;;17.67;4.60;;;11.80;95.70;;;;;;9175701;19;20025;-67
2023/12/28 09:05:44;;;;;;;22.40;3.05;;;11.90;95.80;;;;;;9177288;19;20042;-66
2023/12/28 09:08:53;;;;;;;16.33;2.28;;;12.00;96.00;;;;;;9177381;19;20018;-66
2023/12/28 09:12:01;;;;;;;21.98;2.63;;;11.90;96.00;;;;;;9178322;19;20014;-66
2023/12/28 09:15:10;;;;;;;25.98;3.35;;;12.00;96.00;;;;;;9177471;19;20021;-66
2023/12/28 09:18:15;;;;;;;21.73;2.97;;;11.90;96.30;;;;;;9177859;19;20106;-66
2023/12/28 09:21:23;;;;;;;20.42;3.22;;;12.00;96.10;;;;;;9177572;19;20010;-66
2023/12/28 09:24:29;;;;;;;16.50;2.92;;;12.00;96.30;;;;;;9177490;19;20015;-66
2023/12/28 09:27:39;;;;;;;26.40;3.55;;;12.00;96.70;;;;;;9171290;19;20022;-66
2023/12/28 09:30:45;;;;;;;24.48;3.08;;;12.00;96.40;;;;;;9174644;19;20028;-67
2023/12/28 09:33:52;;;;;;;14.90;2.55;;;12.00;96.20;;;;;;9174312;19;20599;-66
2023/12/28 09:36:58;;;;;;;17.77;3.97;;;12.00;96.80;;;;;;9172428;19;20038;-68
2023/12/28 09:40:07;;;;;;;18.48;2.50;;;12.00;96.90;;;;;;9175890;19;20037;-67
2023/12/28 09:43:20;;;;;;;34.17;4.53;;;12.00;96.50;;;;;;9176047;19;20021;-65
2023/12/28 09:46:29;;;;;;;20.40;2.38;;;12.00;96.70;;;;;;9172265;19;20487;-65
2023/12/28 09:49:35;;;;;;;23.58;3.70;;;12.10;96.10;;;;;;9168466;19;20689;-65
2023/12/28 09:52:42;;;;;;;16.38;2.55;;;12.00;96.20;;;;;;9168847;19;20017;-65
2023/12/28 09:55:49;;;;;;;15.95;2.72;;;12.10;96.70;;;;;;9174458;19;20018;-66
2023/12/28 09:59:00;;;;;;;16.67;2.22;;;;;;;;;;9175149;19;20025;-68
2023/12/28 10:02:06;;;;;;;16.88;2.97;;;12.00;97.50;;;;;;9176583;19;20010;-67
2023/12/28 10:05:16;;;;;;;14.50;2.53;;;12.10;97.10;;;;;;9170756;19;20022;-65
2023/12/28 10:08:22;;;;;;;20.35;2.60;;;12.10;97.40;;;;;;9173174;19;20014;-65
2023/12/28 10:11:30;;;;;;;15.07;2.83;;;12.20;98.20;;;;;;9172539;19;20377;-66
2023/12/28 10:14:38;;;;;;;24.95;3.00;;;12.10;98.40;;;;;;9174434;19;20029;-66
2023/12/28 10:17:46;;;;;;;30.45;2.83;;;12.50;98.30;;;;;;9175044;19;20026;-66
2023/12/28 10:20:52;;;;;;;24.58;3.55;;;12.20;98.90;;;;;;9171208;19;20018;-66
2023/12/28 10:24:00;;;;;;;25.00;3.63;;;12.30;97.60;;;;;;9172919;19;20019;-66
2023/12/28 10:27:06;;;;;;;25.20;2.85;;;12.30;97.00;;;;;;9173633;19;20604;-66
2023/12/28 10:30:16;;;;;;;23.33;2.90;;;12.30;97.60;;;;;;9174148;19;20457;-67
2023/12/28 10:33:23;;;;;;;15.98;3.42;;;12.40;98.40;;;;;;9169772;19;20974;-66
2023/12/28 10:36:32;;;;;;;24.52;3.50;;;12.40;97.90;;;;;;9172542;19;20590;-66
2023/12/28 10:39:38;;;;;;;26.15;3.33;;;12.30;97.70;;;;;;9174012;19;20019;-66
2023/12/28 10:42:54;;;;;;;18.77;2.55;;;12.40;95.90;;;;;;9173218;19;20018;-66
2023/12/28 10:46:04;;;;;;;19.50;2.95;;;12.40;95.50;;;;;;9168207;19;20033;-70
2023/12/28 10:49:15;;;;;;;24.30;2.90;;;12.40;95.30;;;;;;9165501;19;20467;-66
2023/12/28 10:52:23;;;;;;;13.05;2.67;;;12.40;95.20;;;;;;9171055;19;20050;-67
2023/12/28 10:55:41;;;;;;;12.02;2.00;;;12.40;95.30;;;;;;9169684;19;20015;-66
2023/12/28 10:58:51;;;;;;;15.73;2.83;;;12.40;95.20;;;;;;9180310;19;20022;-67
2023/12/28 11:02:06;;;;;;;15.95;3.05;;;12.40;95.40;;;;;;9182813;19;20775;-65
2023/12/28 11:05:13;;;;;;;16.90;2.88;;;12.30;95.40;;;;;;9181592;19;20010;-63
2023/12/28 11:08:23;;;;;;;18.40;3.28;;;12.40;94.80;;;;;;9178215;19;20022;-65
2023/12/28 11:11:32;;;;;;;26.55;3.70;;;12.30;95.30;;;;;;9181816;19;20018;-65
2023/12/28 11:14:43;;;;;;;15.77;3.85;;;12.40;95.20;;;;;;9181667;19;20022;-72
2023/12/28 11:17:52;;;;;;;25.10;3.88;;;12.40;95.30;;;;;;9180971;19;20034;-77
2023/12/28 11:21:00;;;;;;;20.58;2.80;;;12.40;96.00;;;;;;9181830;19;20022;-79
2023/12/28 11:24:06;;;;;;;21.00;2.42;;;12.40;95.60;;;;;;9181373;19;20010;-78
2023/12/28 11:27:14;;;;;;;26.48;4.68;;;12.30;95.40;;;;;;9179114;19;20369;-79
2023/12/28 11:30:19;;;;;;;21.20;3.90;;;12.40;95.70;;;;;;9180969;19;20365;-79
2023/12/28 11:33:36;;;;;;;26.08;3.47;;;12.30;95.20;;;;;;9179873;19;21649;-78
2023/12/28 11:36:49;;;;;;;26.98;3.72;;;12.40;95.30;;;;;;9174820;19;20027;-77
2023/12/28 11:39:59;;;;;;;11.48;2.20;;;12.40;95.00;;;;;;9178362;19;20025;-76
2023/12/28 11:43:05;;;;;;;18.52;2.15;;;12.40;95.90;;;;;;9180769;19;20349;-79
2023/12/28 11:46:14;;;;;;;16.30;2.38;;;12.30;96.60;;;;;;9175867;19;20011;-79
2023/12/28 11:49:29;;;;;;;18.63;2.70;;;12.20;95.80;;;;;;9174729;19;20047;-79
2023/12/28 11:52:37;;;;;;;21.92;3.67;;;12.30;95.60;;;;;;9180984;19;20644;-80
2023/12/28 11:55:43;;;;;;;19.38;2.38;;;12.30;95.90;;;;;;9180893;19;20022;-78
2023/12/28 11:58:53;;;;;;;21.27;3.35;;;12.40;95.20;;;;;;9178947;19;20334;-79
2023/12/28 12:01:59;;;;;;;19.27;2.78;;;12.10;94.40;;;;;;9180283;19;20019;-79
2023/12/28 12:05:12;;;;;;;18.92;3.45;;;12.30;95.00;;;;;;9179101;19;20018;-75
2023/12/28 12:08:22;;;;;;;16.58;3.40;;;12.20;94.70;;;;;;9176362;19;20692;-75
2023/12/28 12:11:31;;;;;;;18.75;2.72;;;12.10;94.80;;;;;;9180866;19;20019;-79
2023/12/28 12:14:37;;;;;;;32.70;3.63;;;12.20;94.90;;;;;;9180032;19;20042;-79
2023/12/28 12:17:46;;;;;;;24.33;3.80;;;12.30;94.80;;;;;;9177252;19;20021;-79
2023/12/28 12:20:55;;;;;;;22.90;3.75;;;12.20;94.70;;;;;;9178724;19;20093;-78
2023/12/28 12:24:05;;;;;;;19.27;2.78;;;12.20;95.10;;;;;;9179534;19;20366;-77
2023/12/28 12:27:12;;;;;;;18.30;2.95;;;12.20;95.00;;;;;;9178586;19;20096;-82
2023/12/28 12:30:25;;;;;;;13.40;2.88;;;12.20;94.90;;;;;;9179855;19;20014;-79
2023/12/28 12:33:32;;;;;;;19.75;3.40;;;12.30;94.90;;;;;;9180063;19;20017;-79
2023/12/28 12:36:42;;;;;;;11.98;2.90;;;12.30;94.90;;;;;;9177230;19;20018;-77
2023/12/28 12:39:48;;;;;;;31.90;4.32;;;12.20;95.20;;;;;;9178091;19;20014;-80
2023/12/28 12:42:57;;;;;;;25.48;3.28;;;12.20;95.60;;;;;;9175686;19;20017;-79
2023/12/28 12:46:03;;;;;;;34.15;3.72;;;12.30;95.50;;;;;;9176476;19;20014;-80
2023/12/28 12:49:13;;;;;;;26.20;3.25;;;12.30;95.60;;;;;;9172474;19;20023;-80
2023/12/28 12:52:23;;;;;;;19.20;2.92;;;12.30;95.60;;;;;;9178528;19;20010;-80
2023/12/28 12:55:32;;;;;;;14.27;2.47;;;12.40;95.10;;;;;;9176162;19;20014;-79
2023/12/28 12:58:37;;;;;;;20.85;3.72;;;12.40;95.20;;;;;;9176023;19;20099;-79
2023/12/28 13:01:48;;;;;;;21.88;3.22;;;12.30;95.40;;;;;;9178791;19;20014;-80
2023/12/28 13:04:55;;;;;;;18.02;2.97;;;12.30;95.50;;;;;;9178104;19;20044;-79
2023/12/28 13:08:06;;;;;;;19.05;3.10;;;12.40;95.90;;;;;;9175390;19;20119;-79
2023/12/28 13:11:12;;;;;;;21.48;4.40;;;12.40;96.10;;;;;;9178117;19;20019;-80
2023/12/28 13:14:20;;;;;;;26.25;3.72;;;12.40;96.40;;;;;;9178534;19;20018;-80
2023/12/28 13:17:31;;;;;;;19.48;3.00;;;12.40;95.70;;;;;;9178673;19;20495;-80
2023/12/28 13:20:39;;;;;;;22.67;2.97;;;12.40;95.60;;;;;;9174832;19;20077;-79
2023/12/28 13:23:51;;;;;;;20.40;3.13;;;12.40;95.60;;;;;;9178085;19;20022;-79
2023/12/28 13:27:00;;;;;;;25.35;3.58;;;12.40;96.30;;;;;;9177381;19;20022;-79
2023/12/28 13:30:10;;;;;;;25.83;3.05;;;12.40;97.00;;;;;;9173722;19;20018;-78
2023/12/28 13:33:24;;;;;;;17.08;2.83;;;12.40;97.40;;;;;;9175940;19;20022;-79
2023/12/28 13:36:31;;;;;;;25.15;2.97;;;12.30;96.60;;;;;;9175658;19;20025;-79
2023/12/28 13:39:41;;;;;;;25.05;3.22;;;12.30;95.10;;;;;;9171494;19;20022;-78
2023/12/28 13:42:53;;;;;;;17.05;2.50;;;12.30;94.80;;;;;;9176328;19;20317;-78
2023/12/28 13:46:18;;;;;;;21.65;3.15;;;12.00;94.00;;;;;;9176991;19;20014;-79
2023/12/28 13:49:27;;;;;;;20.13;3.33;;;12.40;94.20;;;;;;9171274;19;20060;-78
2023/12/28 13:52:39;;;;;;;16.30;2.80;;;12.20;94.10;;;;;;9176318;19;20082;-78
2023/12/28 13:55:47;;;;;;;28.80;4.07;;;12.30;94.70;;;;;;9177032;19;20023;-78
2023/12/28 13:59:01;;;;;;;16.60;2.95;;;12.20;95.60;;;;;;9175724;19;20013;-78
2023/12/28 14:02:10;;;;;;;23.85;3.60;;;12.00;95.00;;;;;;9174401;19;20371;-77
2023/12/28 14:05:19;;;;;;;27.85;3.38;;;12.20;96.10;;;;;;9173795;19;20078;-78
2023/12/28 14:08:25;;;;;;;14.40;2.95;;;12.30;95.30;;;;;;9174897;19;20480;-78
2023/12/28 14:11:35;;;;;;;25.65;3.65;;;12.20;94.90;;;;;;9175545;19;20022;-76
2023/12/28 14:14:43;;;;;;;16.85;3.00;;;12.20;95.90;;;;;;9175023;19;20018;-77
2023/12/28 14:17:50;;;;;;;23.25;2.95;;;12.20;95.20;;;;;;9174103;19;20114;-77
2023/12/28 14:20:58;;;;;;;24.02;2.58;;;12.30;95.40;;;;;;9173541;19;20029;-77
2023/12/28 14:24:08;;;;;;;17.88;2.55;;;12.20;96.10;;;;;;9175483;19;20010;-77
2023/12/28 14:27:17;;;;;;;24.55;3.38;;;12.20;96.00;;;;;;9174077;19;20025;-78
2023/12/28 14:30:28;;;;;;;21.35;3.45;;;12.10;96.40;;;;;;9173114;19;20029;-78
2023/12/28 14:33:38;;;;;;;18.73;2.45;;;12.10;95.90;;;;;;9182578;19;20014;-77
2023/12/28 14:36:49;;;;;;;16.20;2.90;;;12.20;94.50;;;;;;9181776;19;20018;-77
2023/12/28 14:39:55;;;;;;;20.17;2.40;;;12.10;94.20;;;;;;9181411;19;20010;-78
2023/12/28 14:43:06;;;;;;;24.13;3.55;;;12.20;93.60;;;;;;9183808;19;20030;-77
2023/12/28 14:46:12;;;;;;;16.65;3.33;;;12.10;93.30;;;;;;9183067;19;20015;-77
2023/12/28 14:49:19;;;;;;;21.58;3.83;;;12.00;93.10;;;;;;9177174;19;20014;-79
2023/12/28 14:52:25;;;;;;;15.88;3.17;;;12.10;93.60;;;;;;9181118;19;20029;-79
2023/12/28 14:55:33;;;;;;;25.65;3.75;;;12.10;93.60;;;;;;9181275;19;20021;-76
2023/12/28 14:58:44;;;;;;;21.60;2.97;;;12.10;93.40;;;;;;9182370;19;20105;-80
2023/12/28 15:01:54;;;;;;;24.58;3.05;;;12.10;94.00;;;;;;9183283;19;20369;-78
2023/12/28 15:05:00;;;;;;;27.48;3.45;;;12.10;94.20;;;;;;9182739;19;20048;-77
2023/12/28 15:08:09;;;;;;;28.90;3.75;;;12.10;93.80;;;;;;9179418;19;20030;-80
2023/12/28 15:11:15;;;;;;;22.55;3.00;;;12.00;94.20;;;;;;9182375;19;20378;-79
2023/12/28 15:14:26;;;;;;;25.20;3.25;;;12.00;94.10;;;;;;9182311;19;20471;-78
2023/12/28 15:17:34;;;;;;;16.38;3.05;;;12.00;94.20;;;;;;9182612;19;20014;-79
2023/12/28 15:20:42;;;;;;;19.40;3.08;;;12.00;94.40;;;;;;9181256;19;20033;-78
2023/12/28 15:23:48;;;;;;;23.95;3.80;;;12.00;94.30;;;;;;9180440;19;20523;-78
2023/12/28 15:26:56;;;;;;;18.90;2.63;;;11.90;94.60;;;;;;9180679;19;20111;-80
2023/12/28 15:30:05;;;;;;;24.55;3.15;;;12.00;94.70;;;;;;9178987;19;20595;-75
2023/12/28 15:33:13;;;;;;;23.08;3.40;;;12.00;94.40;;;;;;9181245;19;20011;-79
2023/12/28 15:36:19;;;;;;;20.05;3.67;;;12.00;94.50;;;;;;9182010;19;20015;-80
2023/12/28 15:39:26;;;;;;;18.58;3.10;;;11.90;95.30;;;;;;9179086;19;20022;-77
2023/12/28 15:42:32;;;;;;;19.08;3.63;;;11.90;94.10;;;;;;9180485;19;20026;-78
2023/12/28 15:45:42;;;;;;;29.40;3.72;;;11.90;93.90;;;;;;9181286;19;20037;-80
2023/12/28 15:48:48;;;;;;;29.25;3.28;;;12.00;94.50;;;;;;9176629;19;20014;-78
2023/12/28 15:51:56;;;;;;;22.45;3.70;;;12.00;95.80;;;;;;9179582;19;20821;-79
2023/12/28 15:55:02;;;;;;;21.02;2.95;;;11.90;95.20;;;;;;9180838;19;20019;-79
2023/12/28 15:58:14;;;;;;;21.98;3.72;;;11.90;94.40;;;;;;9180658;19;20612;-71
2023/12/28 16:01:23;;;;;;;28.33;3.13;;;12.00;94.00;;;;;;9180750;19;20051;-70
2023/12/28 16:04:31;;;;;;;18.80;3.28;;;11.90;93.90;;;;;;9179865;19;20031;-71
2023/12/28 16:07:39;;;;;;;25.02;3.25;;;11.90;94.40;;;;;;9178379;19;20025;-70
2023/12/28 16:10:46;;;;;;;24.95;3.47;;;11.90;94.60;;;;;;9176039;19;20022;-72
2023/12/28 16:13:55;;;;;;;16.35;2.20;;;11.80;94.80;;;;;;9176892;19;20018;-72